Time;durP1;ratioP1;P1;durP2;ratioP2;P2;SDS_P1;SDS_P2;PMS_P1;PMS_P2;Temp;Humidity;BMP_temperature;BMP_pressure;BME280_temperature;BME280_humidity;BME280_pressure;Samples;Min_cycle;Max_cycle;Signal;HPM_P1;HPM_P2
2023/10/04 00:01:53;;;;;;;2.58;1.08;;;;;;;24.20;46.50;102152.94;5053232;28;20040;-67
2023/10/04 00:04:19;;;;;;;1.80;1.02;;;;;;;24.26;46.51;102162.91;5055798;28;20526;-68
2023/10/04 00:06:44;;;;;;;2.15;1.30;;;;;;;24.22;46.49;102153.59;5058800;28;20048;-67
2023/10/04 00:09:10;;;;;;;2.90;1.52;;;;;;;24.22;46.55;102161.56;5046191;28;20048;-67
2023/10/04 00:11:36;;;;;;;1.85;1.15;;;;;;;24.22;46.43;102166.91;5053145;28;20048;-67
2023/10/04 00:14:01;;;;;;;1.42;1.10;;;;;;;24.21;46.47;102170.56;5054157;28;20056;-67
2023/10/04 00:16:27;;;;;;;2.25;1.20;;;;;;;24.21;46.52;102177.72;5057583;28;20159;-67
2023/10/04 00:18:56;;;;;;;2.58;1.38;;;;;;;24.21;46.52;102178.56;5055591;28;20067;-67
2023/10/04 00:21:21;;;;;;;2.20;1.27;;;;;;;24.19;46.61;102185.06;5057503;28;20491;-67
2023/10/04 00:23:47;;;;;;;1.50;1.20;;;;;;;24.20;46.46;102186.72;5055083;28;20057;-67
2023/10/04 00:26:14;;;;;;;2.13;1.48;;;;;;;24.20;46.50;102187.53;5056654;28;20032;-67
2023/10/04 00:28:40;;;;;;;2.55;1.50;;;;;;;24.21;46.43;102193.69;5052760;28;20048;-68
2023/10/04 00:31:06;;;;;;;1.83;1.00;;;;;;;24.21;46.43;102191.03;5038331;28;20483;-68
2023/10/04 00:33:32;;;;;;;1.70;1.17;;;;;;;24.19;46.41;102183.22;5052437;28;20127;-68
2023/10/04 00:36:04;;;;;;;3.38;1.58;;;;;;;24.17;46.54;102187.91;5055306;28;20055;-68
2023/10/04 00:38:30;;;;;;;1.83;1.33;;;;;;;24.16;46.54;102196.06;5037312;28;20058;-67
2023/10/04 00:40:56;;;;;;;2.15;0.90;;;;;;;24.12;46.28;102184.94;5039402;28;20037;-67
2023/10/04 00:43:22;;;;;;;3.58;1.45;;;;;;;24.17;46.43;102195.06;5046684;28;20054;-67
2023/10/04 00:45:49;;;;;;;1.45;1.15;;;;;;;24.16;46.43;102186.25;5022968;28;20056;-68
2023/10/04 00:48:23;;;;;;;1.67;1.20;;;;;;;24.14;46.55;102192.75;5022486;28;20041;-67
2023/10/04 00:50:48;;;;;;;1.85;1.10;;;;;;;24.16;46.37;102202.22;5038542;28;20411;-66
2023/10/04 00:53:16;;;;;;;2.20;1.20;;;;;;;24.17;46.43;102206.53;5023050;28;20044;-67
2023/10/04 00:55:46;;;;;;;2.58;1.33;;;;;;;24.15;46.47;102208.53;5041833;28;20537;-67
2023/10/04 00:58:14;;;;;;;1.35;1.10;;;;;;;24.17;46.41;102209.19;5033489;28;20083;-67
2023/10/04 01:00:41;;;;;;;1.52;1.20;;;;;;;24.16;46.48;102210.19;5044035;28;20052;-65
2023/10/04 01:03:09;;;;;;;3.78;1.25;;;;;;;24.16;46.44;102207.53;5037810;28;20051;-67
2023/10/04 01:05:39;;;;;;;2.28;1.73;;;;;;;24.16;46.57;102204.88;5041080;28;20511;-67
2023/10/04 01:08:06;;;;;;;2.50;1.20;;;;;;;24.16;46.38;102212.03;5039941;28;20582;-67
2023/10/04 01:10:33;;;;;;;2.08;1.08;;;;;;;24.16;46.43;102204.88;5040745;28;20850;-67
2023/10/04 01:13:00;;;;;;;4.88;1.20;;;;;;;24.16;46.40;102210.19;5036444;28;20044;-67
2023/10/04 01:17:56;;;;;;;1.77;1.30;;;;;;;24.09;46.27;102204.75;5037600;28;20057;-67
2023/10/04 01:20:28;;;;;;;2.13;1.20;;;;;;;24.15;46.46;102210.38;5024663;28;20049;-67
2023/10/04 01:23:01;;;;;;;1.88;1.17;;;;;;;24.12;46.57;102216.88;5036026;28;20036;-67
2023/10/04 01:25:34;;;;;;;2.10;1.20;;;;;;;24.15;46.29;102218.34;5041270;28;20040;-67
2023/10/04 01:28:01;;;;;;;1.40;1.00;;;;;;;24.11;46.50;102216.06;5032392;28;20047;-67
2023/10/04 01:30:27;;;;;;;1.33;1.05;;;;;;;24.11;46.51;102216.06;5035748;28;20044;-67
2023/10/04 01:32:54;;;;;;;1.55;1.05;;;;;;;24.07;46.50;102208.59;5029437;28;20128;-66
2023/10/04 01:35:23;;;;;;;0.88;0.75;;;;;;;24.12;46.50;102222.19;5034861;28;20049;-67
2023/10/04 01:37:50;;;;;;;2.38;1.40;;;;;;;24.10;46.35;102222.38;5020037;28;20037;-67
2023/10/04 01:40:18;;;;;;;2.22;1.40;;;;;;;24.09;46.45;102217.25;5032915;28;20142;-67
2023/10/04 01:42:45;;;;;;;1.52;1.30;;;;;;;24.10;46.28;102218.88;5022555;28;20049;-67
2023/10/04 01:45:14;;;;;;;3.50;1.98;;;;;;;24.11;46.35;102229.34;5049869;28;20126;-67
2023/10/04 01:47:40;;;;;;;3.60;1.05;;;;;;;24.09;46.48;102226.03;5037136;28;20076;-67
2023/10/04 01:50:06;;;;;;;2.45;1.13;;;;;;;24.09;46.49;102228.72;5035338;28;20049;-67
2023/10/04 01:52:32;;;;;;;2.90;1.25;;;;;;;24.10;46.44;102226.88;5053673;28;20068;-66
2023/10/04 01:54:58;;;;;;;2.13;1.13;;;;;;;24.07;46.03;102229.88;5055692;28;20091;-67
2023/10/04 01:57:24;;;;;;;1.65;1.17;;;;;;;24.10;46.21;102221.56;5038263;28;20083;-67
2023/10/04 01:59:49;;;;;;;1.40;0.85;;;;;;;24.07;46.42;102209.44;5014081;28;20136;-67
2023/10/04 02:02:17;;;;;;;1.45;0.80;;;;;;;24.08;46.32;102210.25;5050795;28;20049;-67
2023/10/04 02:04:51;;;;;;;2.13;1.15;;;;;;;24.09;46.43;102210.09;5055843;28;20494;-67
2023/10/04 02:07:17;;;;;;;2.47;1.08;;;;;;;24.07;46.30;102213.91;5039982;28;20036;-67
2023/10/04 02:09:43;;;;;;;1.10;0.85;;;;;;;24.08;46.21;102210.25;5032189;28;20049;-66
2023/10/04 02:12:09;;;;;;;1.75;0.95;;;;;;;24.06;46.40;102207.78;5021090;28;20060;-67
2023/10/04 02:14:34;;;;;;;1.58;1.15;;;;;;;24.06;46.42;102209.59;5057375;28;20056;-67
2023/10/04 02:17:00;;;;;;;2.67;1.50;;;;;;;24.08;46.35;102207.59;5055793;28;20052;-67
2023/10/04 02:19:26;;;;;;;2.13;1.38;;;;;;;24.07;46.44;102216.59;5035620;28;20040;-66
2023/10/04 02:21:52;;;;;;;2.03;1.10;;;;;;;24.05;46.34;102218.56;5055728;28;20495;-67
2023/10/04 02:24:17;;;;;;;2.30;1.40;;;;;;;24.03;46.49;102216.09;5034317;28;20407;-67
2023/10/04 02:26:43;;;;;;;3.15;1.40;;;;;;;24.03;46.45;102213.41;5058581;28;20415;-67
2023/10/04 02:29:09;;;;;;;1.15;0.98;;;;;;;24.03;46.35;102221.41;5054337;28;20045;-67
2023/10/04 02:31:36;;;;;;;1.83;0.95;;;;;;;24.06;46.24;102225.56;5061552;28;20379;-68
2023/10/04 02:34:05;;;;;;;2.08;1.20;;;;;;;24.04;46.56;102231.03;5037731;28;20048;-67
2023/10/04 02:36:34;;;;;;;2.35;1.23;;;;;;;24.05;46.39;102231.88;5040616;28;20064;-67
2023/10/04 02:39:00;;;;;;;1.15;0.70;;;;;;;24.04;46.32;102227.56;5054957;28;20656;-67
2023/10/04 02:41:26;;;;;;;1.98;1.05;;;;;;;24.03;46.38;102225.91;5038894;28;20044;-67
2023/10/04 02:43:51;;;;;;;2.15;1.15;;;;;;;24.03;46.40;102228.56;5055069;28;20044;-67
2023/10/04 02:46:20;;;;;;;3.40;1.10;;;;;;;24.02;46.32;102238.38;5056412;28;20663;-67
2023/10/04 02:48:47;;;;;;;1.90;1.20;;;;;;;24.00;46.41;102239.56;5042935;28;20399;-67
2023/10/04 02:51:13;;;;;;;2.80;1.42;;;;;;;24.02;46.54;102234.88;5042339;28;20052;-67
2023/10/04 02:53:41;;;;;;;1.83;0.90;;;;;;;24.01;46.38;102238.53;5056236;28;20121;-66
2023/10/04 02:56:07;;;;;;;2.47;1.30;;;;;;;24.02;46.26;102240.19;5054880;28;20037;-67
2023/10/04 02:58:37;;;;;;;1.15;1.00;;;;;;;24.03;46.42;102244.53;5054786;28;20053;-67
2023/10/04 03:01:03;;;;;;;0.95;0.88;;;;;;;24.01;46.40;102246.53;5040746;28;20407;-67
2023/10/04 03:03:31;;;;;;;1.63;1.00;;;;;;;23.98;46.22;102242.38;5039913;28;20049;-67
2023/10/04 03:06:01;;;;;;;2.70;1.23;;;;;;;24.01;46.25;102244.69;5022760;28;20052;-67
2023/10/04 03:08:27;;;;;;;3.78;1.67;;;;;;;24.00;46.29;102250.19;5042821;28;20036;-67
2023/10/04 03:10:55;;;;;;;2.25;1.27;;;;;;;23.98;46.33;102255.69;5043592;28;20079;-67
2023/10/04 03:13:22;;;;;;;1.58;0.93;;;;;;;23.99;46.38;102248.53;5035364;28;20049;-66
2023/10/04 03:15:52;;;;;;;2.20;1.17;;;;;;;23.99;46.22;102253.84;5042408;28;20803;-67
2023/10/04 03:18:25;;;;;;;3.05;1.40;;;;;;;23.98;46.25;102258.34;5058213;28;20053;-67
2023/10/04 03:21:08;;;;;;;1.27;0.93;;;;;;;23.98;46.30;102249.53;5044379;28;20046;-68
2023/10/04 03:23:40;;;;;;;4.00;1.27;;;;;;;23.97;46.31;102245.22;5044188;28;20076;-68
2023/10/04 03:26:12;;;;;;;3.53;1.15;;;;;;;23.97;46.31;102250.53;5054472;28;20410;-68
2023/10/04 03:28:38;;;;;;;2.25;1.20;;;;;;;23.95;46.32;102256.03;5038418;28;20105;-66
2023/10/04 03:31:14;;;;;;;2.35;1.33;;;;;;;23.96;46.29;102243.56;5038944;28;20053;-66
2023/10/04 03:33:43;;;;;;;1.35;0.95;;;;;;;23.96;46.08;102248.88;5042219;28;20506;-67
2023/10/04 03:36:14;;;;;;;2.63;1.27;;;;;;;23.97;46.23;102239.91;5044207;28;20089;-66
2023/10/04 03:38:42;;;;;;;1.30;1.13;;;;;;;23.96;46.37;102241.75;5037924;28;20040;-67
2023/10/04 03:41:08;;;;;;;2.30;1.33;;;;;;;23.96;46.20;102238.25;5044382;28;20041;-66
2023/10/04 03:43:36;;;;;;;1.83;1.02;;;;;;;23.94;46.38;102256.22;5039592;28;20048;-66
2023/10/04 03:46:20;;;;;;;1.38;0.70;;;;;;;23.96;46.21;102260.38;5051367;28;20976;-66
2023/10/04 03:48:51;;;;;;;1.67;1.20;;;;;;;23.87;46.38;102247.25;5052875;28;20060;-66
2023/10/04 03:51:21;;;;;;;2.55;0.98;;;;;;;23.92;46.27;102261.72;5041440;28;20117;-66
2023/10/04 03:53:49;;;;;;;2.40;1.50;;;;;;;23.94;46.31;102266.84;5043322;28;20045;-66
2023/10/04 03:56:17;;;;;;;0.88;0.85;;;;;;;23.90;46.34;102266.38;5039758;28;20136;-66
2023/10/04 03:58:44;;;;;;;1.80;1.10;;;;;;;23.92;46.35;102280.34;5041001;28;20052;-66
2023/10/04 04:01:10;;;;;;;2.40;1.00;;;;;;;23.91;46.35;102280.50;5040541;28;20059;-66
2023/10/04 04:03:36;;;;;;;3.63;1.27;;;;;;;23.93;46.18;102275.84;5037916;28;20044;-67
2023/10/04 04:06:02;;;;;;;3.00;1.10;;;;;;;23.93;46.15;102281.16;5036568;28;20056;-66
2023/10/04 04:08:28;;;;;;;2.95;1.20;;;;;;;23.88;46.47;102272.84;5039544;28;20056;-67
2023/10/04 04:10:54;;;;;;;0.95;0.70;;;;;;;23.89;46.22;102270.03;5054913;28;20110;-66
2023/10/04 04:13:20;;;;;;;2.13;1.42;;;;;;;23.91;46.27;102275.19;5038244;28;20048;-66
2023/10/04 04:15:46;;;;;;;2.38;1.10;;;;;;;23.89;46.61;102278.03;5056479;28;20036;-66
2023/10/04 04:18:16;;;;;;;3.38;1.13;;;;;;;23.91;46.32;102284.00;5055036;28;20051;-66
2023/10/04 04:20:41;;;;;;;;;;;;;;;23.92;46.33;102280.34;5041938;28;20540;-66
2023/10/04 04:23:12;;;;;;;2.22;1.08;;;;;;;23.87;46.34;102276.50;5040781;28;19954;-66
2023/10/04 04:25:39;;;;;;;2.45;1.05;;;;;;;23.89;46.22;102280.69;5040110;28;20136;-67
2023/10/04 04:28:07;;;;;;;3.88;1.55;;;;;;;23.91;46.34;102277.84;5052680;28;20135;-67
2023/10/04 04:30:35;;;;;;;2.25;0.93;;;;;;;23.89;46.25;102287.84;5043293;28;20064;-67
2023/10/04 04:33:04;;;;;;;2.27;1.57;;;;;;;23.88;46.34;102294.13;5039236;28;20049;-67
2023/10/04 04:37:57;;;;;;;2.33;1.10;;;;;;;23.90;46.13;102284.19;5038647;28;20444;-67
2023/10/04 04:40:30;;;;;;;2.75;1.35;;;;;;;23.86;46.13;102278.34;5036752;28;21534;-66
2023/10/04 04:43:17;;;;;;;2.22;1.05;;;;;;;23.85;46.13;102279.34;5053770;28;20569;-66
2023/10/04 04:45:51;;;;;;;1.83;1.00;;;;;;;23.89;46.24;102279.84;5051233;28;20558;-67
2023/10/04 04:48:19;;;;;;;1.90;1.45;;;;;;;23.87;46.08;102273.84;5050836;28;20054;-66
2023/10/04 04:50:48;;;;;;;3.35;1.50;;;;;;;23.88;46.38;102278.16;5053165;28;20045;-66
2023/10/04 04:53:18;;;;;;;2.58;1.30;;;;;;;23.88;46.08;102260.41;5042518;28;20072;-66
2023/10/04 04:55:44;;;;;;;0.93;0.77;;;;;;;23.81;46.25;102254.91;5025351;28;20535;-67
2023/10/04 04:58:13;;;;;;;2.72;1.13;;;;;;;23.81;46.27;102252.25;5034750;28;20041;-66
2023/10/04 05:00:43;;;;;;;2.35;1.05;;;;;;;23.82;46.26;102253.09;5023895;28;20044;-66
2023/10/04 05:03:09;;;;;;;1.83;1.05;;;;;;;23.85;46.12;102258.06;5049704;28;20105;-67
2023/10/04 05:05:35;;;;;;;2.33;1.20;;;;;;;23.85;46.36;102250.09;5055116;28;20127;-66
2023/10/04 05:08:00;;;;;;;3.03;1.33;;;;;;;23.86;46.16;102251.75;5057933;28;20047;-66
2023/10/04 05:10:30;;;;;;;2.17;1.35;;;;;;;23.82;46.33;102263.72;5052970;28;20045;-66
2023/10/04 05:12:57;;;;;;;2.72;1.30;;;;;;;23.85;46.35;102270.53;5051217;28;20048;-66
2023/10/04 05:15:31;;;;;;;2.03;1.05;;;;;;;23.84;46.42;102269.72;5060735;28;20045;-66
2023/10/04 05:17:57;;;;;;;2.17;1.10;;;;;;;23.82;46.27;102277.03;5054443;28;20052;-66
2023/10/04 05:20:25;;;;;;;2.47;1.38;;;;;;;23.81;46.17;102273.53;5056599;28;20051;-65
2023/10/04 05:22:50;;;;;;;9.85;1.33;;;;;;;23.81;46.09;102283.34;5056564;28;20052;-66
2023/10/04 05:25:16;;;;;;;2.45;1.08;;;;;;;23.81;46.24;102286.03;5049835;28;20060;-66
2023/10/04 05:27:43;;;;;;;1.23;0.93;;;;;;;23.81;46.38;102294.00;5050756;28;20099;-66
2023/10/04 05:30:16;;;;;;;1.65;0.90;;;;;;;23.84;46.14;102298.97;5053919;28;20456;-66
2023/10/04 05:32:46;;;;;;;2.50;1.38;;;;;;;23.83;46.24;102302.63;5054018;28;20422;-66
2023/10/04 05:35:12;;;;;;;1.58;1.10;;;;;;;23.79;46.22;102317.28;5059056;28;20048;-66
2023/10/04 05:37:42;;;;;;;3.35;1.25;;;;;;;23.77;46.33;102317.44;5052781;28;20116;-66
2023/10/04 05:40:23;;;;;;;1.75;1.23;;;;;;;23.77;46.30;102320.13;5036359;28;20037;-66
2023/10/04 05:42:49;;;;;;;2.40;1.30;;;;;;;23.82;46.15;102330.22;5054579;28;20059;-66
2023/10/04 05:45:16;;;;;;;3.72;0.93;;;;;;;23.77;46.13;102332.59;5051334;28;20585;-66
2023/10/04 05:47:42;;;;;;;1.45;0.88;;;;;;;23.79;46.36;102330.59;5034900;28;20499;-66
2023/10/04 05:50:10;;;;;;;2.15;1.50;;;;;;;23.81;46.38;102348.03;5051092;28;20044;-66
2023/10/04 05:52:37;;;;;;;3.72;1.02;;;;;;;23.81;46.31;102339.22;5053461;28;20059;-66
2023/10/04 05:55:03;;;;;;;2.70;1.10;;;;;;;23.79;46.27;102338.56;5053649;28;20052;-65
2023/10/04 05:57:29;;;;;;;2.53;1.13;;;;;;;23.81;46.19;102334.72;5051058;28;20076;-66
2023/10/04 05:59:55;;;;;;;2.80;1.20;;;;;;;23.80;46.18;102346.38;5055119;28;20052;-66
2023/10/04 06:02:22;;;;;;;2.53;1.30;;;;;;;23.76;46.16;102330.94;5060478;28;20379;-66
2023/10/04 06:04:48;;;;;;;2.42;1.45;;;;;;;23.80;46.21;102334.91;5057043;28;20055;-66
2023/10/04 06:07:14;;;;;;;3.75;1.30;;;;;;;23.74;46.16;102324.94;5057102;28;20044;-65
2023/10/04 06:09:42;;;;;;;2.28;1.30;;;;;;;23.79;46.05;102339.38;5055156;28;20451;-65
2023/10/04 06:12:08;;;;;;;1.75;1.30;;;;;;;23.77;46.21;102351.19;5053604;28;20413;-64
2023/10/04 06:14:35;;;;;;;3.10;1.45;;;;;;;23.79;46.02;102351.84;5040418;28;20491;-67
2023/10/04 06:17:00;;;;;;;4.93;1.67;;;;;;;23.75;46.06;102350.53;5061986;28;20051;-67
2023/10/04 06:19:28;;;;;;;1.58;0.93;;;;;;;23.77;46.10;102354.69;5055577;28;20049;-66
2023/10/04 06:21:53;;;;;;;1.77;0.90;;;;;;;23.76;46.05;102349.53;5060434;28;20058;-66
2023/10/04 06:24:19;;;;;;;2.33;1.50;;;;;;;23.78;46.17;102358.19;5056783;28;20052;-65
2023/10/04 06:26:44;;;;;;;2.17;1.23;;;;;;;23.78;46.11;102368.81;5055122;28;20074;-66
2023/10/04 06:29:10;;;;;;;3.83;1.50;;;;;;;23.78;46.17;102372.31;5053415;28;20051;-66
2023/10/04 06:31:35;;;;;;;2.10;1.30;;;;;;;23.76;46.14;102363.66;5058226;28;20055;-67
2023/10/04 06:34:02;;;;;;;2.88;1.38;;;;;;;23.77;46.08;102356.53;5055099;28;20047;-66
2023/10/04 06:36:29;;;;;;;2.55;1.40;;;;;;;23.77;46.13;102370.66;5055795;28;20109;-66
2023/10/04 06:38:56;;;;;;;3.05;1.10;;;;;;;23.76;46.07;102376.16;5055543;28;20122;-66
2023/10/04 06:41:25;;;;;;;4.32;1.38;;;;;;;23.79;46.04;102379.28;5039252;28;20056;-66
2023/10/04 06:43:52;;;;;;;2.03;1.45;;;;;;;23.79;46.02;102386.44;5053864;28;20068;-66
2023/10/04 06:46:17;;;;;;;3.05;1.63;;;;;;;23.78;45.88;102390.09;5036681;28;20048;-66
2023/10/04 06:48:45;;;;;;;2.47;1.55;;;;;;;23.81;46.04;102382.59;5035382;28;20826;-67
2023/10/04 06:51:11;;;;;;;3.45;1.85;;;;;;;23.80;46.06;102380.94;5032349;28;20135;-66
2023/10/04 06:53:41;;;;;;;3.65;1.58;;;;;;;23.80;45.96;102377.47;5036155;28;20099;-66
2023/10/04 06:56:07;;;;;;;3.55;1.58;;;;;;;23.77;45.89;102375.97;5033845;28;20103;-66
2023/10/04 06:58:32;;;;;;;2.70;1.33;;;;;;;23.79;45.88;102386.44;5038527;28;20779;-66
2023/10/04 07:00:58;;;;;;;1.60;1.45;;;;;;;23.79;45.97;102383.78;5036628;28;20077;-67
2023/10/04 07:03:26;;;;;;;3.78;1.33;;;;;;;23.80;45.90;102388.94;5036437;28;20110;-66
2023/10/04 07:05:51;;;;;;;3.92;1.35;;;;;;;23.79;46.00;102386.44;5032057;28;20041;-66
2023/10/04 07:08:17;;;;;;;3.72;1.60;;;;;;;23.82;45.97;102386.09;5032776;28;20045;-66
2023/10/04 07:10:44;;;;;;;3.53;1.60;;;;;;;23.79;45.88;102387.28;5030204;28;20064;-66
2023/10/04 07:13:10;;;;;;;3.20;1.42;;;;;;;23.83;45.96;102392.25;5037265;28;20403;-67
2023/10/04 07:15:39;;;;;;;1.90;1.27;;;;;;;23.84;45.80;102391.25;5033265;28;20203;-66
2023/10/04 07:18:06;;;;;;;4.35;1.60;;;;;;;23.81;45.87;102401.22;5036351;28;20450;-66
2023/10/04 07:20:33;;;;;;;2.65;1.40;;;;;;;23.79;45.85;102392.59;5037092;28;20056;-66
2023/10/04 07:22:59;;;;;;;4.13;1.70;;;;;;;23.80;45.93;102407.56;5033694;28;20047;-66
2023/10/04 07:25:27;;;;;;;2.97;1.50;;;;;;;23.83;45.71;102406.38;5032536;28;20044;-66
2023/10/04 07:27:59;;;;;;;2.28;1.27;;;;;;;23.86;45.79;102408.69;5033194;28;20048;-65
2023/10/04 07:30:25;;;;;;;4.38;1.52;;;;;;;23.84;45.74;102407.22;5041701;28;20183;-66
2023/10/04 07:32:54;;;;;;;3.58;1.80;;;;;;;23.85;45.84;102416.84;5032554;28;20040;-64
2023/10/04 07:35:25;;;;;;;3.90;1.80;;;;;;;23.85;45.79;102408.88;5041267;28;20430;-66
2023/10/04 07:37:52;;;;;;;5.25;1.80;;;;;;;23.87;45.86;102398.88;5037557;28;20055;-66
2023/10/04 07:40:17;;;;;;;3.83;1.65;;;;;;;23.91;45.72;102410.88;5033516;28;20049;-66
2023/10/04 07:42:46;;;;;;;3.40;1.73;;;;;;;23.88;45.70;102424.50;5038030;28;20180;-65
2023/10/04 07:45:13;;;;;;;3.53;1.85;;;;;;;23.87;45.74;102428.16;5047283;28;20549;-65
2023/10/04 07:47:42;;;;;;;3.67;1.70;;;;;;;23.87;45.64;102423.66;5056625;28;20078;-65
2023/10/04 07:50:15;;;;;;;3.60;1.55;;;;;;;23.86;45.57;102424.66;5057623;28;20433;-64
2023/10/04 07:52:46;;;;;;;3.13;1.80;;;;;;;23.91;45.67;102427.66;5057776;28;20048;-66
2023/10/04 07:55:14;;;;;;;1.88;1.20;;;;;;;23.91;45.95;102429.50;5049996;28;20829;-66
2023/10/04 07:57:44;;;;;;;3.75;1.52;;;;;;;23.93;45.67;102436.31;5054334;28;20052;-66
2023/10/04 08:00:14;;;;;;;1.95;1.38;;;;;;;23.95;45.58;102422.84;5056736;28;20056;-66
2023/10/04 08:02:50;;;;;;;2.38;1.60;;;;;;;23.95;45.81;102425.50;5055229;28;20707;-66
2023/10/04 08:05:27;;;;;;;4.25;2.00;;;;;;;23.91;45.63;102433.00;5058952;28;20541;-66
2023/10/04 08:07:54;;;;;;;4.10;1.67;;;;;;;23.93;45.87;102425.66;5061578;28;20123;-66
2023/10/04 08:10:25;;;;;;;3.63;1.70;;;;;;;23.93;45.67;102431.00;5053871;28;20049;-66
2023/10/04 08:12:59;;;;;;;5.20;1.80;;;;;;;23.91;45.67;102433.00;5040870;28;20051;-66
2023/10/04 08:15:26;;;;;;;4.07;1.65;;;;;;;23.93;45.65;102422.19;5058912;28;20053;-66
2023/10/04 08:17:53;;;;;;;4.40;2.05;;;;;;;23.92;45.63;102439.97;5054164;28;20069;-65
2023/10/04 08:20:21;;;;;;;3.53;1.73;;;;;;;23.92;45.42;102433.81;5059560;28;20049;-66
2023/10/04 08:22:46;;;;;;;4.35;1.48;;;;;;;23.94;45.57;102445.13;5058672;28;20040;-66
2023/10/04 08:25:16;;;;;;;3.25;1.40;;;;;;;23.95;45.65;102436.13;5037871;28;20048;-65
2023/10/04 08:27:42;;;;;;;2.90;1.73;;;;;;;23.96;45.55;102441.28;5048751;28;20181;-66
2023/10/04 08:30:13;;;;;;;5.43;2.03;;;;;;;23.94;45.59;102445.13;5060947;28;20402;-66
2023/10/04 08:32:41;;;;;;;2.53;1.55;;;;;;;23.94;45.65;102445.94;5051903;28;20458;-66
2023/10/04 08:35:09;;;;;;;5.38;1.80;;;;;;;23.92;45.47;102445.28;5050374;28;20048;-65
2023/10/04 08:37:34;;;;;;;6.53;2.03;;;;;;;23.93;45.57;102443.47;5056868;28;20052;-67
2023/10/04 08:40:01;;;;;;;3.92;2.05;;;;;;;23.96;45.54;102445.78;5057910;28;20101;-66
2023/10/04 08:42:28;;;;;;;5.45;2.03;;;;;;;23.91;45.58;102442.81;5052518;28;20076;-66
2023/10/04 08:44:53;;;;;;;5.18;2.22;;;;;;;23.93;45.59;102456.75;5058932;28;20056;-66
2023/10/04 08:47:22;;;;;;;2.80;1.65;;;;;;;23.91;45.62;102448.94;5055271;28;20088;-66
2023/10/04 08:49:55;;;;;;;5.87;2.13;;;;;;;23.96;45.27;102454.59;5053472;28;20622;-67
2023/10/04 08:52:35;;;;;;;3.20;1.90;;;;;;;23.96;45.41;102461.75;5053865;28;20069;-67
2023/10/04 08:55:07;;;;;;;3.72;1.60;;;;;;;23.96;45.46;102451.94;5055836;28;20040;-66
2023/10/04 08:57:41;;;;;;;3.33;1.80;;;;;;;23.95;45.56;102458.25;5048766;28;20062;-66
2023/10/04 09:00:14;;;;;;;4.65;1.90;;;;;;;24.00;45.47;102463.06;5053740;28;20048;-67
2023/10/04 09:02:45;;;;;;;4.25;1.95;;;;;;;23.96;45.64;102464.41;5053322;28;20143;-67
2023/10/04 09:05:14;;;;;;;4.40;2.28;;;;;;;23.96;45.54;102459.91;5050830;28;20048;-67
2023/10/04 09:07:42;;;;;;;5.43;1.80;;;;;;;23.97;45.55;102460.75;5053138;28;20049;-67
2023/10/04 09:10:09;;;;;;;4.95;2.45;;;;;;;24.00;45.48;102463.91;5053916;28;20724;-66
2023/10/04 09:12:34;;;;;;;3.72;1.70;;;;;;;24.00;45.47;102457.75;5050285;28;20521;-67
2023/10/04 09:15:00;;;;;;;3.80;1.98;;;;;;;23.97;45.54;102453.59;5055195;28;20044;-66
2023/10/04 09:17:25;;;;;;;3.63;1.77;;;;;;;24.00;45.60;102461.22;5053554;28;20494;-67
2023/10/04 09:19:52;;;;;;;4.60;2.45;;;;;;;24.01;45.40;102460.22;5022088;28;20094;-66
2023/10/04 09:22:29;;;;;;;8.45;2.30;;;;;;;24.00;45.20;102457.75;5053983;28;20045;-66
2023/10/04 09:24:56;;;;;;;3.55;1.95;;;;;;;23.99;45.45;102450.75;5053259;28;20545;-66
2023/10/04 09:27:23;;;;;;;4.65;2.10;;;;;;;23.97;45.29;102448.28;5055832;28;20052;-66
2023/10/04 09:29:49;;;;;;;4.57;2.40;;;;;;;24.01;45.23;102454.91;5052139;28;20051;-66
2023/10/04 09:32:18;;;;;;;6.32;2.10;;;;;;;24.00;45.47;102455.91;5057582;28;20060;-66
2023/10/04 09:34:57;;;;;;;5.43;1.95;;;;;;;24.00;45.41;102457.75;5053539;28;20049;-66
2023/10/04 09:37:23;;;;;;;4.85;2.10;;;;;;;24.01;45.22;102441.59;5052143;28;20091;-66
2023/10/04 09:39:49;;;;;;;4.85;2.13;;;;;;;23.99;45.39;102454.25;5053415;28;20131;-66
2023/10/04 09:42:14;;;;;;;4.63;2.10;;;;;;;24.00;45.24;102447.94;5057125;28;20048;-67
2023/10/04 09:44:44;;;;;;;4.57;2.28;;;;;;;24.02;45.21;102461.06;5045490;28;20075;-65
2023/10/04 09:47:09;;;;;;;4.57;2.25;;;;;;;24.03;45.31;102452.06;5055723;28;20049;-66
2023/10/04 09:49:37;;;;;;;6.53;2.15;;;;;;;24.00;45.22;102453.25;5052586;28;20056;-66
2023/10/04 09:52:16;;;;;;;4.20;1.90;;;;;;;23.99;45.23;102440.13;5053035;28;20059;-66
2023/10/04 09:54:43;;;;;;;4.57;2.13;;;;;;;23.96;45.40;102438.63;5036345;28;20080;-66
2023/10/04 09:57:12;;;;;;;5.07;1.90;;;;;;;24.02;45.16;102450.41;5039044;28;20053;-67
2023/10/04 09:59:38;;;;;;;6.03;2.30;;;;;;;24.03;45.18;102452.06;5054572;28;20090;-66
2023/10/04 10:02:07;;;;;;;4.43;2.15;;;;;;;24.03;45.06;102449.41;5008752;28;20375;-67
2023/10/04 10:04:41;;;;;;;4.03;2.03;;;;;;;24.03;45.22;102449.41;5055685;28;20056;-67
2023/10/04 10:07:17;;;;;;;4.57;1.98;;;;;;;24.04;45.03;102445.75;5053759;28;20044;-67
2023/10/04 10:09:51;;;;;;;5.00;2.10;;;;;;;23.99;45.23;102448.94;5051879;28;20190;-67
2023/10/04 10:12:20;;;;;;;4.88;2.30;;;;;;;24.01;45.04;102446.94;5053010;28;20126;-67
2023/10/04 10:14:48;;;;;;;4.45;2.03;;;;;;;24.01;44.93;102440.78;5054451;28;20056;-67
2023/10/04 10:17:16;;;;;;;5.90;2.25;;;;;;;23.93;44.94;102419.50;5010061;28;20064;-66
2023/10/04 10:19:43;;;;;;;6.45;3.22;;;;;;;24.03;44.91;102444.94;5057254;28;20811;-67
2023/10/04 10:22:15;;;;;;;6.70;2.95;;;;;;;23.99;45.01;102440.13;5009958;28;20535;-67
2023/10/04 10:25:13;;;;;;;5.28;2.40;;;;;;;24.01;44.87;102444.25;5056807;28;20051;-67
2023/10/04 10:27:39;;;;;;;5.68;2.58;;;;;;;24.01;45.00;102436.28;5048825;28;20422;-67
2023/10/04 10:30:08;;;;;;;4.95;2.25;;;;;;;24.04;44.79;102429.78;5014165;28;20053;-67
2023/10/04 10:32:34;;;;;;;4.05;1.92;;;;;;;24.02;44.87;102432.63;5054884;28;20110;-67
2023/10/04 10:35:08;;;;;;;4.78;2.00;;;;;;;24.04;44.64;102432.44;5039471;28;20056;-68
2023/10/04 10:37:38;;;;;;;5.35;2.53;;;;;;;24.00;44.57;102439.13;5039776;28;20052;-67
2023/10/04 10:40:08;;;;;;;6.20;2.90;;;;;;;23.99;44.61;102440.94;5015042;28;20140;-65
2023/10/04 10:43:07;;;;;;;4.82;2.25;;;;;;;24.00;44.73;102439.94;5059462;28;20055;-67
2023/10/04 10:45:33;;;;;;;5.25;2.30;;;;;;;23.96;44.69;102441.28;5055355;28;20449;-67
2023/10/04 10:48:01;;;;;;;6.22;2.40;;;;;;;23.99;44.59;102451.59;5004405;28;20041;-67
2023/10/04 10:50:32;;;;;;;6.35;2.28;;;;;;;23.94;44.58;102437.97;5063007;28;20059;-67
2023/10/04 10:53:05;;;;;;;5.55;2.65;;;;;;;23.98;44.51;102447.28;5052967;28;20970;-67
2023/10/04 10:55:33;;;;;;;5.45;2.47;;;;;;;23.93;44.81;102441.63;5044818;28;20032;-66
2023/10/04 10:57:59;;;;;;;5.97;2.88;;;;;;;23.97;44.75;102448.28;5021905;28;20049;-66
2023/10/04 11:00:32;;;;;;;7.47;2.50;;;;;;;23.96;44.71;102449.28;5059451;28;20048;-67
2023/10/04 11:03:00;;;;;;;5.40;3.63;;;;;;;23.98;44.60;102449.94;5044727;28;20040;-65
2023/10/04 11:05:27;;;;;;;7.45;2.72;;;;;;;23.98;44.55;102454.41;4995879;28;20041;-66
2023/10/04 11:07:54;;;;;;;4.88;2.40;;;;;;;23.99;44.50;102458.75;5044269;28;20482;-67
2023/10/04 11:10:23;;;;;;;4.20;2.13;;;;;;;23.99;44.57;102453.41;5060458;28;20534;-66
2023/10/04 11:12:54;;;;;;;5.05;2.20;;;;;;;24.00;44.75;102452.41;5058341;28;20047;-66
2023/10/04 11:15:23;;;;;;;6.75;2.50;;;;;;;23.97;44.64;102445.63;5013983;28;20049;-67
2023/10/04 11:17:51;;;;;;;5.60;2.42;;;;;;;23.95;44.34;102449.44;5045758;28;20048;-66
2023/10/04 11:20:17;;;;;;;5.85;2.55;;;;;;;23.94;44.51;102445.13;5012633;28;20043;-66
2023/10/04 11:22:46;;;;;;;5.85;2.70;;;;;;;23.98;44.58;102457.91;5060587;28;20052;-67
2023/10/04 11:25:15;;;;;;;5.05;2.40;;;;;;;23.92;44.77;102450.63;5012613;28;20048;-66
2023/10/04 11:27:51;;;;;;;7.80;3.25;;;;;;;23.92;44.63;102452.44;5054812;28;20044;-67
2023/10/04 11:30:17;;;;;;;7.30;2.50;;;;;;;23.88;44.68;102445.78;5041480;28;20068;-66
2023/10/04 11:32:46;;;;;;;5.97;2.83;;;;;;;23.84;44.91;102447.13;5045200;28;21536;-66
2023/10/04 11:35:15;;;;;;;4.93;2.43;;;;;;;23.91;44.64;102434.81;5058547;28;20491;-65